sensor_id;sensor_type;location;lat;lon;timestamp;pressure;altitude;pressure_sealevel;temperature;humidity
49297;BME280;35163;48.878;18.040;2023-02-10T00:01:06;100325.69;;;-2.29;61.27
49297;BME280;35163;48.878;18.040;2023-02-10T00:03:33;100335.97;;;-2.26;61.49
49297;BME280;35163;48.878;18.040;2023-02-10T00:06:01;100333.06;;;-2.17;60.42
49297;BME280;35163;48.878;18.040;2023-02-10T00:08:28;100333.13;;;-2.16;60.39
49297;BME280;35163;48.878;18.040;2023-02-10T00:10:59;100334.22;;;-2.11;59.83
49297;BME280;35163;48.878;18.040;2023-02-10T00:13:27;100328.13;;;-2.14;60.14
49297;BME280;35163;48.878;18.040;2023-02-10T00:15:57;100333.06;;;-2.17;60.06
49297;BME280;35163;48.878;18.040;2023-02-10T00:18:24;100339.16;;;-2.14;60.29
49297;BME280;35163;48.878;18.040;2023-02-10T00:20:51;100334.88;;;-2.15;60.56
49297;BME280;35163;48.878;18.040;2023-02-10T00:23:18;100329.75;;;-2.16;60.76
49297;BME280;35163;48.878;18.040;2023-02-10T00:25:44;100339.88;;;-2.16;60.84
49297;BME280;35163;48.878;18.040;2023-02-10T00:28:12;100337.66;;;-2.10;60.30
49297;BME280;35163;48.878;18.040;2023-02-10T00:30:39;100337.72;;;-2.09;60.27
49297;BME280;35163;48.878;18.040;2023-02-10T00:33:06;100345.56;;;-2.04;60.30
49297;BME280;35163;48.878;18.040;2023-02-10T00:35:33;100343.66;;;-1.91;59.86
49297;BME280;35163;48.878;18.040;2023-02-10T00:38:00;100345.81;;;-1.99;59.69
49297;BME280;35163;48.878;18.040;2023-02-10T00:40:26;100340.34;;;-2.07;59.81
49297;BME280;35163;48.878;18.040;2023-02-10T00:42:53;100341.91;;;-2.09;60.57
49297;BME280;35163;48.878;18.040;2023-02-10T00:45:20;100338.09;;;-2.01;60.54
49297;BME280;35163;48.878;18.040;2023-02-10T00:47:46;100332.41;;;-1.97;59.39
49297;BME280;35163;48.878;18.040;2023-02-10T00:50:15;100329.78;;;-1.98;59.20
49297;BME280;35163;48.878;18.040;2023-02-10T00:52:42;100328.59;;;-2.05;60.19
49297;BME280;35163;48.878;18.040;2023-02-10T00:55:08;100329.16;;;-2.11;60.36
49297;BME280;35163;48.878;18.040;2023-02-10T00:57:35;100333.38;;;-2.11;60.33
49297;BME280;35163;48.878;18.040;2023-02-10T01:00:02;100329.97;;;-2.12;60.21
49297;BME280;35163;48.878;18.040;2023-02-10T01:02:29;100328.78;;;-2.18;60.79
49297;BME280;35163;48.878;18.040;2023-02-10T01:04:55;100327.34;;;-2.30;61.26
49297;BME280;35163;48.878;18.040;2023-02-10T01:07:24;100323.53;;;-2.38;61.56
49297;BME280;35163;48.878;18.040;2023-02-10T01:09:51;100308.19;;;-2.41;61.88
49297;BME280;35163;48.878;18.040;2023-02-10T01:12:17;100303.34;;;-2.37;61.65
49297;BME280;35163;48.878;18.040;2023-02-10T01:14:44;100301.59;;;-2.21;60.88
49297;BME280;35163;48.878;18.040;2023-02-10T01:17:10;100305.09;;;-2.19;60.73
49297;BME280;35163;48.878;18.040;2023-02-10T01:19:37;100302.97;;;-2.11;59.49
49297;BME280;35163;48.878;18.040;2023-02-10T01:22:04;100303.03;;;-2.10;59.91
49297;BME280;35163;48.878;18.040;2023-02-10T01:24:30;100294.53;;;-2.10;59.92
49297;BME280;35163;48.878;18.040;2023-02-10T01:26:57;100293.78;;;-2.26;60.01
49297;BME280;35163;48.878;18.040;2023-02-10T01:29:24;100291.00;;;-2.30;60.45
49297;BME280;35163;48.878;18.040;2023-02-10T01:31:50;100292.66;;;-2.31;60.85
49297;BME280;35163;48.878;18.040;2023-02-10T01:34:17;100289.75;;;-2.39;61.38
49297;BME280;35163;48.878;18.040;2023-02-10T01:36:44;100287.03;;;-2.42;61.42
49297;BME280;35163;48.878;18.040;2023-02-10T01:39:10;100287.91;;;-2.41;61.33
49297;BME280;35163;48.878;18.040;2023-02-10T01:41:37;100305.97;;;-2.52;61.51
49297;BME280;35163;48.878;18.040;2023-02-10T01:46:53;100323.91;;;-2.81;63.40
49297;BME280;35163;48.878;18.040;2023-02-10T01:49:26;100327.44;;;-2.94;63.69
49297;BME280;35163;48.878;18.040;2023-02-10T01:52:02;100330.59;;;-2.98;63.98
49297;BME280;35163;48.878;18.040;2023-02-10T01:54:35;100330.75;;;-2.95;63.53
49297;BME280;35163;48.878;18.040;2023-02-10T01:57:04;100334.78;;;-2.98;63.97
49297;BME280;35163;48.878;18.040;2023-02-10T01:59:34;100324.41;;;-3.03;63.43
49297;BME280;35163;48.878;18.040;2023-02-10T02:02:01;100320.09;;;-3.21;63.60
49297;BME280;35163;48.878;18.040;2023-02-10T02:04:39;100314.66;;;-3.12;63.55
49297;BME280;35163;48.878;18.040;2023-02-10T02:07:08;100301.91;;;-3.13;63.91
49297;BME280;35163;48.878;18.040;2023-02-10T02:09:35;100303.84;;;-3.09;63.69
49297;BME280;35163;48.878;18.040;2023-02-10T02:15:07;100293.72;;;-3.09;64.05
49297;BME280;35163;48.878;18.040;2023-02-10T02:17:50;100295.22;;;-3.13;63.96
49297;BME280;35163;48.878;18.040;2023-02-10T02:28:38;100265.88;;;-3.09;64.32
49297;BME280;35163;48.878;18.040;2023-02-10T02:36:48;100267.25;;;-2.83;62.73
49297;BME280;35163;48.878;18.040;2023-02-10T02:39:15;100278.88;;;-2.86;62.54
49297;BME280;35163;48.878;18.040;2023-02-10T02:41:42;100279.31;;;-2.94;62.76
49297;BME280;35163;48.878;18.040;2023-02-10T02:44:09;100279.00;;;-3.00;62.94
49297;BME280;35163;48.878;18.040;2023-02-10T02:47:04;100283.88;;;-3.20;63.30
49297;BME280;35163;48.878;18.040;2023-02-10T02:49:38;100288.03;;;-3.37;64.46
49297;BME280;35163;48.878;18.040;2023-02-10T02:52:11;100296.84;;;-3.45;64.96
49297;BME280;35163;48.878;18.040;2023-02-10T02:57:19;100298.16;;;-3.52;65.18
49297;BME280;35163;48.878;18.040;2023-02-10T03:00:02;100294.38;;;-3.59;65.08
49297;BME280;35163;48.878;18.040;2023-02-10T03:02:32;100290.22;;;-3.58;65.24
49297;BME280;35163;48.878;18.040;2023-02-10T03:04:59;100279.22;;;-3.59;65.31
49297;BME280;35163;48.878;18.040;2023-02-10T03:07:26;100292.81;;;-3.57;65.61
49297;BME280;35163;48.878;18.040;2023-02-10T03:09:52;100281.75;;;-3.59;65.56
49297;BME280;35163;48.878;18.040;2023-02-10T03:12:19;100281.56;;;-3.62;65.61
49297;BME280;35163;48.878;18.040;2023-02-10T03:14:46;100281.66;;;-3.60;65.33
49297;BME280;35163;48.878;18.040;2023-02-10T03:17:12;100278.19;;;-3.62;66.00
49297;BME280;35163;48.878;18.040;2023-02-10T03:19:39;100282.47;;;-3.61;65.70
49297;BME280;35163;48.878;18.040;2023-02-10T03:22:06;100283.25;;;-3.62;66.10
49297;BME280;35163;48.878;18.040;2023-02-10T03:24:32;100284.03;;;-3.63;65.66
49297;BME280;35163;48.878;18.040;2023-02-10T03:26:59;100285.59;;;-3.66;66.25
49297;BME280;35163;48.878;18.040;2023-02-10T03:29:25;100281.50;;;-3.63;65.89
49297;BME280;35163;48.878;18.040;2023-02-10T03:31:52;100282.28;;;-3.64;66.27
49297;BME280;35163;48.878;18.040;2023-02-10T03:34:19;100278.88;;;-3.65;66.74
49297;BME280;35163;48.878;18.040;2023-02-10T03:36:45;100282.38;;;-3.63;66.09
49297;BME280;35163;48.878;18.040;2023-02-10T03:39:12;100292.06;;;-3.56;66.49
49297;BME280;35163;48.878;18.040;2023-02-10T03:41:38;100286.19;;;-3.55;66.57
49297;BME280;35163;48.878;18.040;2023-02-10T03:44:05;100289.34;;;-3.59;66.73
49297;BME280;35163;48.878;18.040;2023-02-10T03:46:32;100291.19;;;-3.56;65.65
49297;BME280;35163;48.878;18.040;2023-02-10T03:48:59;100298.75;;;-3.56;66.15
49297;BME280;35163;48.878;18.040;2023-02-10T03:51:25;100303.81;;;-3.56;66.28
49297;BME280;35163;48.878;18.040;2023-02-10T03:53:52;100304.72;;;-3.56;65.84
49297;BME280;35163;48.878;18.040;2023-02-10T03:56:19;100306.28;;;-3.58;66.03
49297;BME280;35163;48.878;18.040;2023-02-10T03:58:45;100302.25;;;-3.54;66.26
49297;BME280;35163;48.878;18.040;2023-02-10T04:01:14;100302.50;;;-3.49;65.48
49297;BME280;35163;48.878;18.040;2023-02-10T04:03:41;100296.56;;;-3.50;65.55
49297;BME280;35163;48.878;18.040;2023-02-10T04:06:09;100303.22;;;-3.52;65.45
49297;BME280;35163;48.878;18.040;2023-02-10T04:08:36;100299.91;;;-3.51;65.55
49297;BME280;35163;48.878;18.040;2023-02-10T04:11:04;100297.97;;;-3.55;65.51
49297;BME280;35163;48.878;18.040;2023-02-10T04:13:30;100295.28;;;-3.58;65.49
49297;BME280;35163;48.878;18.040;2023-02-10T04:16:16;100288.72;;;-3.55;65.06
49297;BME280;35163;48.878;18.040;2023-02-10T04:18:43;100282.78;;;-3.55;64.81
49297;BME280;35163;48.878;18.040;2023-02-10T04:21:11;100280.09;;;-3.58;65.17
49297;BME280;35163;48.878;18.040;2023-02-10T04:23:38;100274.53;;;-3.68;66.00
49297;BME280;35163;48.878;18.040;2023-02-10T04:26:04;100278.63;;;-3.70;66.02
49297;BME280;35163;48.878;18.040;2023-02-10T04:28:31;100280.44;;;-3.67;65.69
49297;BME280;35163;48.878;18.040;2023-02-10T04:30:59;100278.00;;;-3.66;65.81
49297;BME280;35163;48.878;18.040;2023-02-10T04:33:26;100273.75;;;-3.67;66.22
49297;BME280;35163;48.878;18.040;2023-02-10T04:35:54;100262.59;;;-3.70;66.00
49297;BME280;35163;48.878;18.040;2023-02-10T04:38:21;100268.16;;;-3.76;66.17
49297;BME280;35163;48.878;18.040;2023-02-10T04:40:47;100278.28;;;-3.76;65.55
49297;BME280;35163;48.878;18.040;2023-02-10T04:43:14;100269.31;;;-3.86;66.35
49297;BME280;35163;48.878;18.040;2023-02-10T04:45:41;100279.94;;;-3.92;65.80
49297;BME280;35163;48.878;18.040;2023-02-10T04:48:08;100279.25;;;-4.04;65.53
49297;BME280;35163;48.878;18.040;2023-02-10T04:50:36;100287.25;;;-4.11;65.50
49297;BME280;35163;48.878;18.040;2023-02-10T04:53:03;100293.00;;;-4.14;65.92
49297;BME280;35163;48.878;18.040;2023-02-10T04:55:30;100306.22;;;-4.18;65.83
49297;BME280;35163;48.878;18.040;2023-02-10T04:57:57;100312.09;;;-4.19;66.19
49297;BME280;35163;48.878;18.040;2023-02-10T05:00:23;100311.47;;;-4.15;66.31
49297;BME280;35163;48.878;18.040;2023-02-10T05:02:50;100303.78;;;-4.17;66.26
49297;BME280;35163;48.878;18.040;2023-02-10T05:05:17;100301.91;;;-4.06;67.08
49297;BME280;35163;48.878;18.040;2023-02-10T05:07:44;100300.44;;;-4.02;67.38
49297;BME280;35163;48.878;18.040;2023-02-10T05:10:11;100301.38;;;-4.00;66.43
49297;BME280;35163;48.878;18.040;2023-02-10T05:12:38;100296.22;;;-4.02;66.09
49297;BME280;35163;48.878;18.040;2023-02-10T05:15:04;100314.00;;;-4.00;66.41
49297;BME280;35163;48.878;18.040;2023-02-10T05:17:31;100308.78;;;-4.03;66.59
49297;BME280;35163;48.878;18.040;2023-02-10T05:19:58;100304.50;;;-4.04;66.67
49297;BME280;35163;48.878;18.040;2023-02-10T05:22:25;100293.44;;;-4.06;66.91
49297;BME280;35163;48.878;18.040;2023-02-10T05:24:56;100292.28;;;-4.11;66.90
49297;BME280;35163;48.878;18.040;2023-02-10T05:27:26;100301.53;;;-4.12;66.73
49297;BME280;35163;48.878;18.040;2023-02-10T05:29:52;100303.97;;;-4.13;67.54
49297;BME280;35163;48.878;18.040;2023-02-10T05:32:19;100301.34;;;-4.15;67.45
49297;BME280;35163;48.878;18.040;2023-02-10T05:34:46;100302.91;;;-4.17;67.74
49297;BME280;35163;48.878;18.040;2023-02-10T05:37:12;100312.16;;;-4.18;67.66
49297;BME280;35163;48.878;18.040;2023-02-10T05:39:39;100313.91;;;-4.17;67.60
49297;BME280;35163;48.878;18.040;2023-02-10T05:42:06;100316.25;;;-4.20;67.97
49297;BME280;35163;48.878;18.040;2023-02-10T05:44:33;100327.16;;;-4.21;67.32
49297;BME280;35163;48.878;18.040;2023-02-10T05:47:00;100334.44;;;-4.25;66.22
49297;BME280;35163;48.878;18.040;2023-02-10T05:49:26;100329.69;;;-4.34;65.84
49297;BME280;35163;48.878;18.040;2023-02-10T05:51:53;100323.75;;;-4.50;66.15
49297;BME280;35163;48.878;18.040;2023-02-10T05:54:19;100332.97;;;-4.51;66.63
49297;BME280;35163;48.878;18.040;2023-02-10T05:56:46;100341.22;;;-4.53;66.92
49297;BME280;35163;48.878;18.040;2023-02-10T05:59:13;100344.53;;;-4.54;67.22
49297;BME280;35163;48.878;18.040;2023-02-10T06:01:41;100345.66;;;-4.64;66.67
49297;BME280;35163;48.878;18.040;2023-02-10T06:04:08;100353.53;;;-4.73;66.84
49297;BME280;35163;48.878;18.040;2023-02-10T06:06:35;100352.47;;;-4.77;67.07
49297;BME280;35163;48.878;18.040;2023-02-10T06:09:02;100354.81;;;-4.80;67.55
49297;BME280;35163;48.878;18.040;2023-02-10T06:11:29;100352.28;;;-4.80;67.64
49297;BME280;35163;48.878;18.040;2023-02-10T06:13:55;100344.41;;;-4.71;67.94
49297;BME280;35163;48.878;18.040;2023-02-10T06:16:22;100348.09;;;-4.66;67.75
49297;BME280;35163;48.878;18.040;2023-02-10T06:18:49;100349.31;;;-4.59;67.99
49297;BME280;35163;48.878;18.040;2023-02-10T06:21:16;100355.03;;;-4.61;67.58
49297;BME280;35163;48.878;18.040;2023-02-10T06:23:42;100368.75;;;-4.58;67.70
49297;BME280;35163;48.878;18.040;2023-02-10T06:26:09;100367.97;;;-4.57;68.02
49297;BME280;35163;48.878;18.040;2023-02-10T06:28:36;100367.09;;;-4.57;68.65
49297;BME280;35163;48.878;18.040;2023-02-10T06:31:03;100373.41;;;-4.51;67.95
49297;BME280;35163;48.878;18.040;2023-02-10T06:33:30;100372.06;;;-4.59;68.02
49297;BME280;35163;48.878;18.040;2023-02-10T06:35:56;100376.91;;;-4.48;68.12
49297;BME280;35163;48.878;18.040;2023-02-10T06:38:23;100377.75;;;-4.48;68.19
49297;BME280;35163;48.878;18.040;2023-02-10T06:40:49;100373.94;;;-4.41;67.49
49297;BME280;35163;48.878;18.040;2023-02-10T06:43:16;100379.28;;;-4.36;68.05
49297;BME280;35163;48.878;18.040;2023-02-10T06:45:43;100381.13;;;-4.34;67.89
49297;BME280;35163;48.878;18.040;2023-02-10T06:48:09;100380.66;;;-4.42;67.62
49297;BME280;35163;48.878;18.040;2023-02-10T06:50:36;100392.50;;;-4.41;67.40
49297;BME280;35163;48.878;18.040;2023-02-10T06:53:04;100391.03;;;-4.37;67.32
49297;BME280;35163;48.878;18.040;2023-02-10T06:55:31;100406.97;;;-4.38;67.73
49297;BME280;35163;48.878;18.040;2023-02-10T06:57:59;100418.34;;;-4.31;67.53
49297;BME280;35163;48.878;18.040;2023-02-10T07:00:26;100411.06;;;-4.40;66.69
49297;BME280;35163;48.878;18.040;2023-02-10T07:02:53;100403.22;;;-4.45;66.71
49297;BME280;35163;48.878;18.040;2023-02-10T07:05:20;100411.56;;;-4.46;66.49
49297;BME280;35163;48.878;18.040;2023-02-10T07:07:47;100415.22;;;-4.41;66.41
49297;BME280;35163;48.878;18.040;2023-02-10T07:10:14;100413.69;;;-4.39;66.59
49297;BME280;35163;48.878;18.040;2023-02-10T07:12:40;100407.66;;;-4.41;65.85
49297;BME280;35163;48.878;18.040;2023-02-10T07:15:07;100399.91;;;-4.44;65.95
49297;BME280;35163;48.878;18.040;2023-02-10T07:17:34;100404.06;;;-4.44;66.78
49297;BME280;35163;48.878;18.040;2023-02-10T07:20:03;100415.03;;;-4.30;67.52
49297;BME280;35163;48.878;18.040;2023-02-10T07:22:30;100417.31;;;-4.20;67.52
49297;BME280;35163;48.878;18.040;2023-02-10T07:24:56;100409.75;;;-4.20;66.29
49297;BME280;35163;48.878;18.040;2023-02-10T07:27:23;100414.31;;;-4.14;64.98
49297;BME280;35163;48.878;18.040;2023-02-10T07:29:50;100410.44;;;-4.22;64.89
49297;BME280;35163;48.878;18.040;2023-02-10T07:32:16;100401.41;;;-4.32;65.01
49297;BME280;35163;48.878;18.040;2023-02-10T07:34:43;100403.25;;;-4.30;64.70
49297;BME280;35163;48.878;18.040;2023-02-10T07:37:09;100407.63;;;-4.27;64.96
49297;BME280;35163;48.878;18.040;2023-02-10T07:39:36;100408.00;;;-4.21;65.67
49297;BME280;35163;48.878;18.040;2023-02-10T07:42:03;100404.97;;;-4.15;65.57
49297;BME280;35163;48.878;18.040;2023-02-10T07:44:30;100412.13;;;-4.08;65.78
49297;BME280;35163;48.878;18.040;2023-02-10T07:46:56;100419.84;;;-3.91;64.46
49297;BME280;35163;48.878;18.040;2023-02-10T07:49:23;100426.81;;;-4.02;64.14
49297;BME280;35163;48.878;18.040;2023-02-10T07:51:50;100425.03;;;-4.03;63.74
49297;BME280;35163;48.878;18.040;2023-02-10T07:54:17;100426.59;;;-4.05;64.08
49297;BME280;35163;48.878;18.040;2023-02-10T07:56:44;100420.59;;;-4.07;64.36
49297;BME280;35163;48.878;18.040;2023-02-10T07:59:10;100426.59;;;-4.05;64.46
49297;BME280;35163;48.878;18.040;2023-02-10T08:01:37;100430.19;;;-4.02;65.08
49297;BME280;35163;48.878;18.040;2023-02-10T08:04:09;100434.03;;;-3.93;64.86
49297;BME280;35163;48.878;18.040;2023-02-10T08:06:35;100428.47;;;-3.87;64.66
49297;BME280;35163;48.878;18.040;2023-02-10T08:09:03;100424.56;;;-3.82;64.77
49297;BME280;35163;48.878;18.040;2023-02-10T08:11:29;100427.38;;;-3.78;65.01
49297;BME280;35163;48.878;18.040;2023-02-10T08:13:58;100439.50;;;-3.72;64.59
49297;BME280;35163;48.878;18.040;2023-02-10T08:16:26;100429.75;;;-3.66;64.68
49297;BME280;35163;48.878;18.040;2023-02-10T08:18:52;100435.34;;;-3.56;64.50
49297;BME280;35163;48.878;18.040;2023-02-10T08:21:19;100426.28;;;-3.52;64.46
49297;BME280;35163;48.878;18.040;2023-02-10T08:23:45;100425.97;;;-3.44;64.52
49297;BME280;35163;48.878;18.040;2023-02-10T08:26:13;100424.03;;;-3.33;64.63
49297;BME280;35163;48.878;18.040;2023-02-10T08:28:40;100430.47;;;-3.23;64.94
49297;BME280;35163;48.878;18.040;2023-02-10T08:31:08;100422.63;;;-3.12;64.51
49297;BME280;35163;48.878;18.040;2023-02-10T08:33:36;100422.81;;;-3.09;64.17
49297;BME280;35163;48.878;18.040;2023-02-10T08:36:14;100434.06;;;-3.04;64.21
49297;BME280;35163;48.878;18.040;2023-02-10T08:38:41;100435.00;;;-3.02;64.18
49297;BME280;35163;48.878;18.040;2023-02-10T08:41:08;100436.50;;;-2.90;63.94
49297;BME280;35163;48.878;18.040;2023-02-10T08:43:35;100434.47;;;-2.81;63.85
49297;BME280;35163;48.878;18.040;2023-02-10T08:46:02;100440.91;;;-2.71;63.50
49297;BME280;35163;48.878;18.040;2023-02-10T08:48:29;100441.34;;;-2.63;63.41
49297;BME280;35163;48.878;18.040;2023-02-10T08:50:57;100434.13;;;-2.56;63.22
49297;BME280;35163;48.878;18.040;2023-02-10T08:53:24;100428.63;;;-2.48;62.38
49297;BME280;35163;48.878;18.040;2023-02-10T08:56:02;100434.13;;;-2.40;62.68
49297;BME280;35163;48.878;18.040;2023-02-10T08:58:30;100430.34;;;-2.32;61.76
49297;BME280;35163;48.878;18.040;2023-02-10T09:00:57;100426.47;;;-2.25;61.65
49297;BME280;35163;48.878;18.040;2023-02-10T09:03:23;100422.56;;;-2.18;62.04
49297;BME280;35163;48.878;18.040;2023-02-10T09:05:50;100426.47;;;-2.09;61.56
49297;BME280;35163;48.878;18.040;2023-02-10T09:08:17;100424.31;;;-2.01;61.89
49297;BME280;35163;48.878;18.040;2023-02-10T09:10:45;100427.34;;;-1.91;61.28
49297;BME280;35163;48.878;18.040;2023-02-10T09:13:12;100426.06;;;-1.83;62.10
49297;BME280;35163;48.878;18.040;2023-02-10T09:15:41;100423.19;;;-1.73;61.79
49297;BME280;35163;48.878;18.040;2023-02-10T09:18:08;100417.81;;;-1.62;61.57
49297;BME280;35163;48.878;18.040;2023-02-10T09:20:36;100426.66;;;-1.54;61.13
49297;BME280;35163;48.878;18.040;2023-02-10T09:23:03;100429.81;;;-1.41;61.16
49297;BME280;35163;48.878;18.040;2023-02-10T09:25:29;100429.22;;;-1.36;61.58
49297;BME280;35163;48.878;18.040;2023-02-10T09:27:56;100420.84;;;-1.35;59.81
49297;BME280;35163;48.878;18.040;2023-02-10T09:30:25;100425.38;;;-1.29;59.36
49297;BME280;35163;48.878;18.040;2023-02-10T09:32:52;100415.56;;;-1.21;59.36
49297;BME280;35163;48.878;18.040;2023-02-10T09:35:20;100412.53;;;-1.14;58.73
49297;BME280;35163;48.878;18.040;2023-02-10T09:37:46;100413.63;;;-1.08;58.38
49297;BME280;35163;48.878;18.040;2023-02-10T09:40:20;100420.00;;;-0.99;58.61
49297;BME280;35163;48.878;18.040;2023-02-10T09:45:33;100421.19;;;-0.92;57.94
49297;BME280;35163;48.878;18.040;2023-02-10T09:50:54;100426.16;;;-0.75;57.43
49297;BME280;35163;48.878;18.040;2023-02-10T09:53:27;100431.50;;;-0.70;57.79
49297;BME280;35163;48.878;18.040;2023-02-10T09:55:58;100434.09;;;-0.69;56.66
49297;BME280;35163;48.878;18.040;2023-02-10T09:58:51;100430.31;;;-0.59;57.42
49297;BME280;35163;48.878;18.040;2023-02-10T10:04:03;100429.88;;;-0.50;56.95
49297;BME280;35163;48.878;18.040;2023-02-10T10:06:37;100425.19;;;-0.41;56.63
49297;BME280;35163;48.878;18.040;2023-02-10T10:11:43;100393.34;;;-0.32;56.74
49297;BME280;35163;48.878;18.040;2023-02-10T10:14:54;100392.34;;;-0.36;55.74
49297;BME280;35163;48.878;18.040;2023-02-10T10:17:33;100397.84;;;-0.27;55.89
49297;BME280;35163;48.878;18.040;2023-02-10T10:23:15;100395.97;;;-0.11;55.35
49297;BME280;35163;48.878;18.040;2023-02-10T10:29:09;100386.41;;;0.03;55.78
49297;BME280;35163;48.878;18.040;2023-02-10T10:31:44;100382.47;;;0.10;54.46
49297;BME280;35163;48.878;18.040;2023-02-10T10:34:21;100377.63;;;0.16;55.03
49297;BME280;35163;48.878;18.040;2023-02-10T10:36:52;100377.16;;;0.25;54.85
49297;BME280;35163;48.878;18.040;2023-02-10T10:39:38;100375.91;;;0.36;56.47
49297;BME280;35163;48.878;18.040;2023-02-10T10:44:49;100370.34;;;0.45;54.11
49297;BME280;35163;48.878;18.040;2023-02-10T10:47:43;100377.31;;;0.50;54.44
49297;BME280;35163;48.878;18.040;2023-02-10T10:50:17;100377.44;;;0.53;53.54
49297;BME280;35163;48.878;18.040;2023-02-10T10:52:45;100377.66;;;0.59;53.76
49297;BME280;35163;48.878;18.040;2023-02-10T10:55:22;100375.25;;;0.62;53.70
49297;BME280;35163;48.878;18.040;2023-02-10T10:57:52;100361.78;;;0.65;53.22
49297;BME280;35163;48.878;18.040;2023-02-10T11:00:25;100360.34;;;0.71;53.95
49297;BME280;35163;48.878;18.040;2023-02-10T11:03:01;100359.59;;;0.74;53.52
49297;BME280;35163;48.878;18.040;2023-02-10T11:05:29;100353.81;;;0.78;52.50
49297;BME280;35163;48.878;18.040;2023-02-10T11:07:58;100357.47;;;0.85;52.91
49297;BME280;35163;48.878;18.040;2023-02-10T11:13:52;100350.81;;;0.89;52.36
49297;BME280;35163;48.878;18.040;2023-02-10T11:16:21;100346.06;;;0.98;53.39
49297;BME280;35163;48.878;18.040;2023-02-10T11:18:59;100344.50;;;1.02;52.92
49297;BME280;35163;48.878;18.040;2023-02-10T11:21:36;100349.03;;;1.09;54.19
49297;BME280;35163;48.878;18.040;2023-02-10T11:24:17;100343.38;;;1.16;52.41
49297;BME280;35163;48.878;18.040;2023-02-10T11:27:03;100336.94;;;1.26;54.23
49297;BME280;35163;48.878;18.040;2023-02-10T11:29:33;100332.81;;;1.30;52.18
49297;BME280;35163;48.878;18.040;2023-02-10T11:32:00;100335.75;;;1.41;51.74
49297;BME280;35163;48.878;18.040;2023-02-10T11:37:08;100344.28;;;1.41;50.94
49297;BME280;35163;48.878;18.040;2023-02-10T11:39:38;100343.81;;;1.52;50.16
49297;BME280;35163;48.878;18.040;2023-02-10T11:42:09;100344.75;;;1.54;49.61
49297;BME280;35163;48.878;18.040;2023-02-10T11:44:36;100340.56;;;1.56;50.03
49297;BME280;35163;48.878;18.040;2023-02-10T11:47:12;100342.50;;;1.63;49.21
49297;BME280;35163;48.878;18.040;2023-02-10T11:49:46;100335.03;;;1.68;48.66
49297;BME280;35163;48.878;18.040;2023-02-10T11:52:14;100335.31;;;1.76;49.86
49297;BME280;35163;48.878;18.040;2023-02-10T11:54:41;100326.13;;;1.81;49.96
49297;BME280;35163;48.878;18.040;2023-02-10T11:57:33;100329.81;;;1.89;49.30
49297;BME280;35163;48.878;18.040;2023-02-10T12:03:47;100309.41;;;2.15;49.28
49297;BME280;35163;48.878;18.040;2023-02-10T12:06:39;100307.56;;;2.11;48.72
49297;BME280;35163;48.878;18.040;2023-02-10T12:09:19;100305.28;;;2.19;49.50
49297;BME280;35163;48.878;18.040;2023-02-10T12:11:58;100306.66;;;2.35;49.92
49297;BME280;35163;48.878;18.040;2023-02-10T12:15:04;100306.59;;;2.34;49.54
49297;BME280;35163;48.878;18.040;2023-02-10T12:23:48;100314.50;;;2.41;49.47
49297;BME280;35163;48.878;18.040;2023-02-10T12:34:32;100310.56;;;2.51;48.31
49297;BME280;35163;48.878;18.040;2023-02-10T12:37:11;100305.59;;;2.56;48.67
49297;BME280;35163;48.878;18.040;2023-02-10T12:45:17;100293.09;;;2.64;48.78
49297;BME280;35163;48.878;18.040;2023-02-10T12:53:18;100302.94;;;2.81;49.24
49297;BME280;35163;48.878;18.040;2023-02-10T12:58:32;100298.09;;;2.88;49.96
49297;BME280;35163;48.878;18.040;2023-02-10T13:03:38;100294.06;;;2.97;49.99
49297;BME280;35163;48.878;18.040;2023-02-10T13:08:57;100288.28;;;3.04;49.98
49297;BME280;35163;48.878;18.040;2023-02-10T13:11:34;100288.91;;;2.95;49.40
49297;BME280;35163;48.878;18.040;2023-02-10T13:14:10;100287.28;;;2.99;49.26
49297;BME280;35163;48.878;18.040;2023-02-10T13:16:50;100290.75;;;3.01;50.28
49297;BME280;35163;48.878;18.040;2023-02-10T13:25:07;100297.78;;;3.08;49.15
49297;BME280;35163;48.878;18.040;2023-02-10T13:35:52;100304.66;;;3.11;49.32
49297;BME280;35163;48.878;18.040;2023-02-10T13:38:20;100305.59;;;3.13;49.06
49297;BME280;35163;48.878;18.040;2023-02-10T13:40:52;100310.69;;;3.13;49.63
49297;BME280;35163;48.878;18.040;2023-02-10T13:43:40;100309.84;;;3.12;49.05
49297;BME280;35163;48.878;18.040;2023-02-10T13:46:25;100302.28;;;3.15;48.75
49297;BME280;35163;48.878;18.040;2023-02-10T13:48:55;100299.81;;;3.19;49.44
49297;BME280;35163;48.878;18.040;2023-02-10T13:51:36;100307.47;;;3.19;49.73
49297;BME280;35163;48.878;18.040;2023-02-10T13:54:04;100315.13;;;3.19;49.57
49297;BME280;35163;48.878;18.040;2023-02-10T13:56:33;100313.59;;;3.24;49.06
49297;BME280;35163;48.878;18.040;2023-02-10T13:59:04;100321.16;;;3.21;49.29
49297;BME280;35163;48.878;18.040;2023-02-10T14:04:40;100327.84;;;3.15;49.07
49297;BME280;35163;48.878;18.040;2023-02-10T14:07:33;100324.28;;;3.10;48.81
49297;BME280;35163;48.878;18.040;2023-02-10T14:10:30;100320.84;;;3.10;49.20
49297;BME280;35163;48.878;18.040;2023-02-10T14:13:05;100328.44;;;3.07;49.88
49297;BME280;35163;48.878;18.040;2023-02-10T14:15:35;100321.63;;;3.07;50.02
49297;BME280;35163;48.878;18.040;2023-02-10T14:18:32;100322.47;;;3.08;49.94
49297;BME280;35163;48.878;18.040;2023-02-10T14:21:10;100322.41;;;3.04;49.92
49297;BME280;35163;48.878;18.040;2023-02-10T14:23:43;100324.25;;;3.09;50.00
49297;BME280;35163;48.878;18.040;2023-02-10T14:26:45;100333.53;;;3.07;49.98
49297;BME280;35163;48.878;18.040;2023-02-10T14:29:18;100325.88;;;3.07;49.66
49297;BME280;35163;48.878;18.040;2023-02-10T14:31:52;100325.06;;;3.09;49.89
49297;BME280;35163;48.878;18.040;2023-02-10T14:34:25;100328.56;;;3.11;49.79
49297;BME280;35163;48.878;18.040;2023-02-10T14:39:26;100330.97;;;3.07;50.04
49297;BME280;35163;48.878;18.040;2023-02-10T14:41:55;100319.88;;;3.06;50.21